sensor_id;sensor_type;location;lat;lon;timestamp;pressure;altitude;pressure_sealevel;temperature;humidity
6387;BME280;3226;42.162;24.756;2022-10-22T00:01:09;100659.97;;;7.79;76.68
6387;BME280;3226;42.162;24.756;2022-10-22T00:03:38;100653.72;;;7.50;77.78
6387;BME280;3226;42.162;24.756;2022-10-22T00:06:07;100650.41;;;7.30;79.11
6387;BME280;3226;42.162;24.756;2022-10-22T00:08:35;100632.78;;;7.02;79.84
6387;BME280;3226;42.162;24.756;2022-10-22T00:11:08;100649.53;;;7.14;80.05
6387;BME280;3226;42.162;24.756;2022-10-22T00:13:36;100627.72;;;6.99;80.37
6387;BME280;3226;42.162;24.756;2022-10-22T00:16:05;100635.38;;;7.02;80.19
6387;BME280;3226;42.162;24.756;2022-10-22T00:18:34;100627.69;;;7.16;79.67
6387;BME280;3226;42.162;24.756;2022-10-22T00:21:05;100613.47;;;7.06;79.40
6387;BME280;3226;42.162;24.756;2022-10-22T00:23:34;100626.78;;;7.33;78.94
6387;BME280;3226;42.162;24.756;2022-10-22T00:26:02;100624.59;;;7.26;78.97
6387;BME280;3226;42.162;24.756;2022-10-22T00:28:30;100626.31;;;7.43;78.34
6387;BME280;3226;42.162;24.756;2022-10-22T00:31:00;100619.88;;;7.32;78.88
6387;BME280;3226;42.162;24.756;2022-10-22T00:33:28;100618.78;;;7.20;79.36
6387;BME280;3226;42.162;24.756;2022-10-22T00:35:57;100607.22;;;6.92;80.04
6387;BME280;3226;42.162;24.756;2022-10-22T00:38:27;100618.75;;;7.04;80.41
6387;BME280;3226;42.162;24.756;2022-10-22T00:40:55;100621.00;;;6.94;80.46
6387;BME280;3226;42.162;24.756;2022-10-22T00:43:23;100622.22;;;6.87;80.89
6387;BME280;3226;42.162;24.756;2022-10-22T00:45:51;100611.63;;;6.57;82.17
6387;BME280;3226;42.162;24.756;2022-10-22T00:48:22;100609.31;;;6.33;83.90
6387;BME280;3226;42.162;24.756;2022-10-22T00:50:55;100615.84;;;6.59;82.57
6387;BME280;3226;42.162;24.756;2022-10-22T00:53:28;100601.06;;;6.60;82.22
6387;BME280;3226;42.162;24.756;2022-10-22T00:55:57;100601.22;;;6.74;81.45
6387;BME280;3226;42.162;24.756;2022-10-22T00:58:28;100602.78;;;6.77;81.45
6387;BME280;3226;42.162;24.756;2022-10-22T01:00:57;100616.13;;;6.71;81.53
6387;BME280;3226;42.162;24.756;2022-10-22T01:03:27;100614.06;;;6.77;81.25
6387;BME280;3226;42.162;24.756;2022-10-22T01:05:57;100587.66;;;6.50;81.91
6387;BME280;3226;42.162;24.756;2022-10-22T01:08:35;100613.06;;;6.45;83.00
6387;BME280;3226;42.162;24.756;2022-10-22T01:11:14;100610.16;;;6.51;83.10
6387;BME280;3226;42.162;24.756;2022-10-22T01:13:48;100576.34;;;6.33;82.83
6387;BME280;3226;42.162;24.756;2022-10-22T01:16:24;100603.06;;;6.55;82.98
6387;BME280;3226;42.162;24.756;2022-10-22T01:19:00;100603.91;;;6.55;83.27
6387;BME280;3226;42.162;24.756;2022-10-22T01:21:40;100600.19;;;6.77;81.38
6387;BME280;3226;42.162;24.756;2022-10-22T01:24:21;100596.38;;;6.67;81.88
6387;BME280;3226;42.162;24.756;2022-10-22T01:27:12;100590.06;;;6.37;82.81
6387;BME280;3226;42.162;24.756;2022-10-22T01:29:47;100586.16;;;6.28;83.14
6387;BME280;3226;42.162;24.756;2022-10-22T01:32:19;100595.38;;;6.34;82.95
6387;BME280;3226;42.162;24.756;2022-10-22T01:34:51;100591.34;;;6.28;83.19
6387;BME280;3226;42.162;24.756;2022-10-22T01:37:22;100601.28;;;6.38;82.77
6387;BME280;3226;42.162;24.756;2022-10-22T01:39:53;100572.44;;;6.07;83.20
6387;BME280;3226;42.162;24.756;2022-10-22T01:42:22;100592.63;;;6.19;83.15
6387;BME280;3226;42.162;24.756;2022-10-22T01:44:53;100594.69;;;6.13;83.70
6387;BME280;3226;42.162;24.756;2022-10-22T01:47:30;100596.63;;;6.44;83.02
6387;BME280;3226;42.162;24.756;2022-10-22T01:50:14;100592.75;;;6.69;81.17
6387;BME280;3226;42.162;24.756;2022-10-22T01:52:58;100588.53;;;6.84;80.87
6387;BME280;3226;42.162;24.756;2022-10-22T01:55:40;100582.88;;;6.93;80.30
6387;BME280;3226;42.162;24.756;2022-10-22T01:58:19;100588.03;;;6.60;81.44
6387;BME280;3226;42.162;24.756;2022-10-22T02:00:58;100580.03;;;6.29;81.72
6387;BME280;3226;42.162;24.756;2022-10-22T02:03:32;100602.34;;;6.51;81.50
6387;BME280;3226;42.162;24.756;2022-10-22T02:06:05;100595.25;;;6.37;81.96
6387;BME280;3226;42.162;24.756;2022-10-22T02:08:37;100604.19;;;6.14;83.29
6387;BME280;3226;42.162;24.756;2022-10-22T02:11:06;100600.44;;;6.02;83.85
6387;BME280;3226;42.162;24.756;2022-10-22T02:13:40;100573.75;;;5.79;84.37
6387;BME280;3226;42.162;24.756;2022-10-22T02:16:15;100597.75;;;6.03;84.32
6387;BME280;3226;42.162;24.756;2022-10-22T02:18:45;100559.19;;;6.12;82.33
6387;BME280;3226;42.162;24.756;2022-10-22T02:21:16;100595.78;;;6.44;81.96
6387;BME280;3226;42.162;24.756;2022-10-22T02:23:45;100593.16;;;6.44;81.62
6387;BME280;3226;42.162;24.756;2022-10-22T02:26:18;100601.91;;;6.25;82.29
6387;BME280;3226;42.162;24.756;2022-10-22T02:28:56;100599.84;;;5.95;84.10
6387;BME280;3226;42.162;24.756;2022-10-22T02:31:29;100598.38;;;5.89;83.99
6387;BME280;3226;42.162;24.756;2022-10-22T02:34:02;100596.13;;;5.82;84.76
6387;BME280;3226;42.162;24.756;2022-10-22T02:36:34;100580.84;;;5.56;85.13
6387;BME280;3226;42.162;24.756;2022-10-22T02:39:05;100592.00;;;5.77;85.07
6387;BME280;3226;42.162;24.756;2022-10-22T02:41:36;100574.41;;;5.46;85.59
6387;BME280;3226;42.162;24.756;2022-10-22T02:44:08;100579.59;;;5.65;84.80
6387;BME280;3226;42.162;24.756;2022-10-22T02:46:38;100590.41;;;5.92;83.89
6387;BME280;3226;42.162;24.756;2022-10-22T02:49:07;100592.84;;;5.78;84.54
6387;BME280;3226;42.162;24.756;2022-10-22T02:51:36;100596.47;;;5.93;83.88
6387;BME280;3226;42.162;24.756;2022-10-22T02:54:04;100591.47;;;5.71;84.90
6387;BME280;3226;42.162;24.756;2022-10-22T02:56:33;100598.09;;;5.76;84.19
6387;BME280;3226;42.162;24.756;2022-10-22T02:59:01;100587.97;;;5.53;85.52
6387;BME280;3226;42.162;24.756;2022-10-22T03:01:29;100586.97;;;5.55;85.28
6387;BME280;3226;42.162;24.756;2022-10-22T03:03:59;100588.94;;;5.50;85.73
6387;BME280;3226;42.162;24.756;2022-10-22T03:06:30;100575.13;;;5.30;86.05
6387;BME280;3226;42.162;24.756;2022-10-22T03:08:58;100596.31;;;5.40;86.88
6387;BME280;3226;42.162;24.756;2022-10-22T03:11:27;100594.47;;;5.42;87.27
6387;BME280;3226;42.162;24.756;2022-10-22T03:13:55;100568.50;;;5.42;86.94
6387;BME280;3226;42.162;24.756;2022-10-22T03:16:23;100600.38;;;5.65;86.26
6387;BME280;3226;42.162;24.756;2022-10-22T03:18:51;100585.16;;;5.38;86.98
6387;BME280;3226;42.162;24.756;2022-10-22T03:21:27;100600.03;;;5.73;86.11
6387;BME280;3226;42.162;24.756;2022-10-22T03:23:57;100586.50;;;5.47;86.98
6387;BME280;3226;42.162;24.756;2022-10-22T03:26:26;100568.03;;;5.34;87.02
6387;BME280;3226;42.162;24.756;2022-10-22T03:28:55;100593.44;;;5.27;88.40
6387;BME280;3226;42.162;24.756;2022-10-22T03:31:24;100578.91;;;5.23;88.00
6387;BME280;3226;42.162;24.756;2022-10-22T03:33:52;100584.19;;;5.41;87.00
6387;BME280;3226;42.162;24.756;2022-10-22T03:36:22;100576.66;;;5.15;88.67
6387;BME280;3226;42.162;24.756;2022-10-22T03:38:51;100587.41;;;5.27;89.03
6387;BME280;3226;42.162;24.756;2022-10-22T03:41:21;100574.47;;;5.44;87.96
6387;BME280;3226;42.162;24.756;2022-10-22T03:43:50;100577.06;;;5.44;87.59
6387;BME280;3226;42.162;24.756;2022-10-22T03:46:20;100573.91;;;5.57;86.87
6387;BME280;3226;42.162;24.756;2022-10-22T03:48:49;100579.16;;;5.55;85.91
6387;BME280;3226;42.162;24.756;2022-10-22T03:51:17;100578.63;;;5.48;86.26
6387;BME280;3226;42.162;24.756;2022-10-22T03:53:47;100585.16;;;5.19;87.34
6387;BME280;3226;42.162;24.756;2022-10-22T03:56:15;100579.94;;;5.00;87.61
6387;BME280;3226;42.162;24.756;2022-10-22T03:58:45;100545.94;;;4.66;88.05
6387;BME280;3226;42.162;24.756;2022-10-22T04:01:13;100569.78;;;4.95;87.73
6387;BME280;3226;42.162;24.756;2022-10-22T04:03:42;100573.63;;;5.05;86.82
6387;BME280;3226;42.162;24.756;2022-10-22T04:06:11;100597.44;;;5.15;85.90
6387;BME280;3226;42.162;24.756;2022-10-22T04:08:41;100571.66;;;4.91;86.46
6387;BME280;3226;42.162;24.756;2022-10-22T04:11:13;100588.47;;;5.23;85.27
6387;BME280;3226;42.162;24.756;2022-10-22T04:13:42;100582.47;;;5.01;85.36
6387;BME280;3226;42.162;24.756;2022-10-22T04:16:12;100598.13;;;5.19;84.85
6387;BME280;3226;42.162;24.756;2022-10-22T04:18:42;100604.47;;;4.92;85.36
6387;BME280;3226;42.162;24.756;2022-10-22T04:21:12;100607.72;;;4.98;85.80
6387;BME280;3226;42.162;24.756;2022-10-22T04:23:43;100607.84;;;4.95;85.79
6387;BME280;3226;42.162;24.756;2022-10-22T04:26:14;100602.94;;;4.88;86.68
6387;BME280;3226;42.162;24.756;2022-10-22T04:28:44;100576.13;;;4.88;85.84
6387;BME280;3226;42.162;24.756;2022-10-22T04:31:14;100607.47;;;5.23;85.06
6387;BME280;3226;42.162;24.756;2022-10-22T04:33:43;100606.16;;;4.94;85.54
6387;BME280;3226;42.162;24.756;2022-10-22T04:36:13;100606.19;;;5.13;85.32
6387;BME280;3226;42.162;24.756;2022-10-22T04:38:43;100604.88;;;5.23;84.76
6387;BME280;3226;42.162;24.756;2022-10-22T04:41:14;100609.28;;;5.21;84.14
6387;BME280;3226;42.162;24.756;2022-10-22T04:43:43;100613.69;;;5.00;85.02
6387;BME280;3226;42.162;24.756;2022-10-22T04:46:12;100606.19;;;5.13;85.55
6387;BME280;3226;42.162;24.756;2022-10-22T04:48:42;100593.03;;;5.37;84.12
6387;BME280;3226;42.162;24.756;2022-10-22T04:51:13;100593.50;;;5.26;83.66
6387;BME280;3226;42.162;24.756;2022-10-22T04:53:42;100562.59;;;4.81;85.66
6387;BME280;3226;42.162;24.756;2022-10-22T04:56:18;100582.25;;;5.06;85.62
6387;BME280;3226;42.162;24.756;2022-10-22T04:58:47;100582.19;;;5.07;86.06
6387;BME280;3226;42.162;24.756;2022-10-22T05:01:17;100578.59;;;5.10;85.04
6387;BME280;3226;42.162;24.756;2022-10-22T05:03:50;100576.53;;;5.18;84.97
6387;BME280;3226;42.162;24.756;2022-10-22T05:06:19;100577.59;;;5.14;84.65
6387;BME280;3226;42.162;24.756;2022-10-22T05:08:52;100580.19;;;5.14;85.34
6387;BME280;3226;42.162;24.756;2022-10-22T05:11:24;100572.78;;;5.24;85.47
6387;BME280;3226;42.162;24.756;2022-10-22T05:13:54;100575.19;;;5.29;85.22
6387;BME280;3226;42.162;24.756;2022-10-22T05:16:23;100569.38;;;5.24;85.39
6387;BME280;3226;42.162;24.756;2022-10-22T05:18:52;100572.38;;;5.53;85.06
6387;BME280;3226;42.162;24.756;2022-10-22T05:21:21;100558.84;;;5.27;84.63
6387;BME280;3226;42.162;24.756;2022-10-22T05:23:49;100571.09;;;5.23;85.23
6387;BME280;3226;42.162;24.756;2022-10-22T05:26:19;100567.34;;;5.30;85.63
6387;BME280;3226;42.162;24.756;2022-10-22T05:28:49;100581.50;;;5.23;85.33
6387;BME280;3226;42.162;24.756;2022-10-22T05:31:18;100588.75;;;5.16;84.80
6387;BME280;3226;42.162;24.756;2022-10-22T05:33:47;100571.22;;;5.01;84.38
6387;BME280;3226;42.162;24.756;2022-10-22T05:36:18;100570.41;;;5.00;84.44
6387;BME280;3226;42.162;24.756;2022-10-22T05:38:47;100593.50;;;5.06;84.60
6387;BME280;3226;42.162;24.756;2022-10-22T05:41:17;100583.53;;;5.16;85.02
6387;BME280;3226;42.162;24.756;2022-10-22T05:43:45;100571.47;;;4.96;84.30
6387;BME280;3226;42.162;24.756;2022-10-22T05:46:17;100572.44;;;5.32;83.06
6387;BME280;3226;42.162;24.756;2022-10-22T05:48:49;100579.19;;;5.17;83.69
6387;BME280;3226;42.162;24.756;2022-10-22T05:51:17;100577.69;;;5.11;83.84
6387;BME280;3226;42.162;24.756;2022-10-22T05:53:50;100562.63;;;5.39;83.33
6387;BME280;3226;42.162;24.756;2022-10-22T05:56:19;100557.72;;;5.52;82.57
6387;BME280;3226;42.162;24.756;2022-10-22T05:58:47;100565.13;;;5.59;82.19
6387;BME280;3226;42.162;24.756;2022-10-22T06:01:18;100574.34;;;5.67;82.20
6387;BME280;3226;42.162;24.756;2022-10-22T06:03:48;100576.34;;;5.79;81.40
6387;BME280;3226;42.162;24.756;2022-10-22T06:06:19;100579.34;;;5.89;81.00
6387;BME280;3226;42.162;24.756;2022-10-22T06:08:49;100556.31;;;5.81;80.98
6387;BME280;3226;42.162;24.756;2022-10-22T06:11:19;100574.94;;;6.08;79.63
6387;BME280;3226;42.162;24.756;2022-10-22T06:13:48;100578.03;;;5.98;80.60
6387;BME280;3226;42.162;24.756;2022-10-22T06:16:18;100575.72;;;6.11;80.13
6387;BME280;3226;42.162;24.756;2022-10-22T06:18:47;100570.38;;;6.14;79.99
6387;BME280;3226;42.162;24.756;2022-10-22T06:21:15;100581.84;;;6.10;80.22
6387;BME280;3226;42.162;24.756;2022-10-22T06:23:43;100573.22;;;6.09;79.91
6387;BME280;3226;42.162;24.756;2022-10-22T06:26:12;100579.03;;;5.95;80.74
6387;BME280;3226;42.162;24.756;2022-10-22T06:28:41;100582.16;;;5.84;81.39
6387;BME280;3226;42.162;24.756;2022-10-22T06:31:10;100575.72;;;5.74;82.19
6387;BME280;3226;42.162;24.756;2022-10-22T06:33:39;100562.53;;;5.96;80.94
6387;BME280;3226;42.162;24.756;2022-10-22T06:36:10;100582.69;;;6.28;79.82
6387;BME280;3226;42.162;24.756;2022-10-22T06:38:40;100571.69;;;6.40;78.86
6387;BME280;3226;42.162;24.756;2022-10-22T06:41:10;100571.00;;;6.54;78.33
6387;BME280;3226;42.162;24.756;2022-10-22T06:43:39;100588.97;;;6.59;78.82
6387;BME280;3226;42.162;24.756;2022-10-22T06:46:09;100590.94;;;7.05;77.71
6387;BME280;3226;42.162;24.756;2022-10-22T06:48:47;100592.84;;;7.35;76.39
6387;BME280;3226;42.162;24.756;2022-10-22T06:51:16;100597.28;;;7.33;76.85
6387;BME280;3226;42.162;24.756;2022-10-22T06:53:46;100592.47;;;7.09;77.94
6387;BME280;3226;42.162;24.756;2022-10-22T06:56:16;100598.56;;;7.26;77.85
6387;BME280;3226;42.162;24.756;2022-10-22T06:58:46;100593.75;;;7.34;76.79
6387;BME280;3226;42.162;24.756;2022-10-22T07:01:15;100613.34;;;7.25;77.14
6387;BME280;3226;42.162;24.756;2022-10-22T07:03:46;100610.78;;;7.23;77.40
6387;BME280;3226;42.162;24.756;2022-10-22T07:06:14;100617.41;;;7.63;76.68
6387;BME280;3226;42.162;24.756;2022-10-22T07:08:43;100621.59;;;7.81;75.79
6387;BME280;3226;42.162;24.756;2022-10-22T07:11:13;100603.91;;;7.87;75.19
6387;BME280;3226;42.162;24.756;2022-10-22T07:13:42;100600.81;;;8.27;73.83
6387;BME280;3226;42.162;24.756;2022-10-22T07:16:11;100616.16;;;8.17;73.63
6387;BME280;3226;42.162;24.756;2022-10-22T07:18:42;100615.97;;;8.20;73.87
6387;BME280;3226;42.162;24.756;2022-10-22T07:21:13;100613.72;;;8.14;74.02
6387;BME280;3226;42.162;24.756;2022-10-22T07:23:42;100591.53;;;8.06;74.25
6387;BME280;3226;42.162;24.756;2022-10-22T07:26:13;100594.94;;;8.23;74.22
6387;BME280;3226;42.162;24.756;2022-10-22T07:28:41;100607.38;;;8.48;73.30
6387;BME280;3226;42.162;24.756;2022-10-22T07:31:11;100579.38;;;8.52;72.84
6387;BME280;3226;42.162;24.756;2022-10-22T07:33:40;100602.91;;;8.66;72.64
6387;BME280;3226;42.162;24.756;2022-10-22T07:36:12;100592.00;;;8.89;72.23
6387;BME280;3226;42.162;24.756;2022-10-22T07:38:44;100586.22;;;8.98;71.00
6387;BME280;3226;42.162;24.756;2022-10-22T07:41:13;100575.88;;;8.82;70.83
6387;BME280;3226;42.162;24.756;2022-10-22T07:43:41;100589.28;;;9.19;70.25
6387;BME280;3226;42.162;24.756;2022-10-22T07:46:10;100597.28;;;9.45;68.96
6387;BME280;3226;42.162;24.756;2022-10-22T07:48:39;100608.09;;;9.53;68.88
6387;BME280;3226;42.162;24.756;2022-10-22T07:51:08;100607.19;;;9.82;68.30
6387;BME280;3226;42.162;24.756;2022-10-22T07:53:38;100603.06;;;9.92;67.89
6387;BME280;3226;42.162;24.756;2022-10-22T07:56:08;100594.34;;;9.92;68.27
6387;BME280;3226;42.162;24.756;2022-10-22T07:58:37;100570.72;;;9.93;67.25
6387;BME280;3226;42.162;24.756;2022-10-22T08:01:05;100594.75;;;10.26;66.79
6387;BME280;3226;42.162;24.756;2022-10-22T08:03:34;100595.28;;;10.31;65.97
6387;BME280;3226;42.162;24.756;2022-10-22T08:06:03;100595.59;;;10.39;65.82
6387;BME280;3226;42.162;24.756;2022-10-22T08:08:32;100598.41;;;10.51;65.37
6387;BME280;3226;42.162;24.756;2022-10-22T08:11:02;100596.50;;;10.53;64.82
6387;BME280;3226;42.162;24.756;2022-10-22T08:13:30;100589.16;;;10.45;65.34
6387;BME280;3226;42.162;24.756;2022-10-22T08:15:59;100579.13;;;10.24;65.98
6387;BME280;3226;42.162;24.756;2022-10-22T08:18:27;100577.97;;;10.56;64.45
6387;BME280;3226;42.162;24.756;2022-10-22T08:20:56;100572.09;;;10.78;64.10
6387;BME280;3226;42.162;24.756;2022-10-22T08:23:25;100580.59;;;10.69;64.27
6387;BME280;3226;42.162;24.756;2022-10-22T08:25:55;100589.78;;;11.01;63.93
6387;BME280;3226;42.162;24.756;2022-10-22T08:28:26;100590.75;;;10.87;64.21
6387;BME280;3226;42.162;24.756;2022-10-22T08:30:55;100571.38;;;10.89;64.08
6387;BME280;3226;42.162;24.756;2022-10-22T08:33:23;100574.06;;;11.01;63.97
6387;BME280;3226;42.162;24.756;2022-10-22T08:35:52;100583.34;;;11.31;63.70
6387;BME280;3226;42.162;24.756;2022-10-22T08:38:21;100583.91;;;11.10;63.38
6387;BME280;3226;42.162;24.756;2022-10-22T08:40:52;100556.66;;;10.99;63.55
6387;BME280;3226;42.162;24.756;2022-10-22T08:43:36;100583.25;;;11.32;63.49
6387;BME280;3226;42.162;24.756;2022-10-22T08:46:19;100584.94;;;11.33;63.45
6387;BME280;3226;42.162;24.756;2022-10-22T08:48:54;100579.28;;;11.26;63.32
6387;BME280;3226;42.162;24.756;2022-10-22T08:51:26;100559.81;;;11.42;62.40
6387;BME280;3226;42.162;24.756;2022-10-22T08:54:13;100566.13;;;11.39;62.66
6387;BME280;3226;42.162;24.756;2022-10-22T08:56:49;100549.00;;;11.47;62.35
6387;BME280;3226;42.162;24.756;2022-10-22T08:59:26;100560.47;;;11.81;61.93
6387;BME280;3226;42.162;24.756;2022-10-22T09:02:01;100530.25;;;12.00;61.33
6387;BME280;3226;42.162;24.756;2022-10-22T09:04:36;100548.91;;;12.44;60.86
6387;BME280;3226;42.162;24.756;2022-10-22T09:07:08;100556.19;;;12.40;60.73
6387;BME280;3226;42.162;24.756;2022-10-22T09:09:41;100554.88;;;12.57;60.25
6387;BME280;3226;42.162;24.756;2022-10-22T09:12:13;100546.66;;;12.62;60.27
6387;BME280;3226;42.162;24.756;2022-10-22T09:14:47;100548.00;;;12.79;59.28
6387;BME280;3226;42.162;24.756;2022-10-22T09:17:20;100543.56;;;12.80;58.84
6387;BME280;3226;42.162;24.756;2022-10-22T09:20:01;100537.34;;;12.92;58.49
6387;BME280;3226;42.162;24.756;2022-10-22T09:22:34;100537.69;;;12.87;58.86
6387;BME280;3226;42.162;24.756;2022-10-22T09:25:16;100537.09;;;12.72;59.29
6387;BME280;3226;42.162;24.756;2022-10-22T09:27:47;100523.94;;;12.84;58.83
6387;BME280;3226;42.162;24.756;2022-10-22T09:30:19;100521.25;;;13.41;57.70
6387;BME280;3226;42.162;24.756;2022-10-22T09:32:49;100527.91;;;13.56;57.00
6387;BME280;3226;42.162;24.756;2022-10-22T09:35:22;100522.59;;;13.47;56.63
6387;BME280;3226;42.162;24.756;2022-10-22T09:37:53;100514.50;;;13.59;56.05
6387;BME280;3226;42.162;24.756;2022-10-22T09:40:22;100515.38;;;13.81;56.07
6387;BME280;3226;42.162;24.756;2022-10-22T09:42:51;100522.47;;;13.81;55.51
6387;BME280;3226;42.162;24.756;2022-10-22T09:45:24;100513.91;;;13.88;54.96
6387;BME280;3226;42.162;24.756;2022-10-22T09:48:03;100510.84;;;14.05;54.80
6387;BME280;3226;42.162;24.756;2022-10-22T09:50:40;100495.94;;;13.94;54.67
6387;BME280;3226;42.162;24.756;2022-10-22T09:53:17;100494.47;;;14.01;54.95
6387;BME280;3226;42.162;24.756;2022-10-22T09:55:51;100487.84;;;14.07;55.26
6387;BME280;3226;42.162;24.756;2022-10-22T09:58:19;100488.53;;;14.09;55.13
6387;BME280;3226;42.162;24.756;2022-10-22T10:00:52;100484.44;;;14.16;54.46
6387;BME280;3226;42.162;24.756;2022-10-22T10:03:23;100473.44;;;14.32;54.14
6387;BME280;3226;42.162;24.756;2022-10-22T10:05:54;100470.00;;;14.41;53.66
6387;BME280;3226;42.162;24.756;2022-10-22T10:08:28;100440.84;;;14.33;53.30
6387;BME280;3226;42.162;24.756;2022-10-22T10:10:59;100471.44;;;14.24;53.58
6387;BME280;3226;42.162;24.756;2022-10-22T10:13:42;100466.91;;;14.05;54.28
6387;BME280;3226;42.162;24.756;2022-10-22T10:16:26;100462.22;;;14.40;53.32
6387;BME280;3226;42.162;24.756;2022-10-22T10:19:10;100455.19;;;14.71;52.49
6387;BME280;3226;42.162;24.756;2022-10-22T10:21:48;100457.41;;;14.76;51.36
6387;BME280;3226;42.162;24.756;2022-10-22T10:24:27;100449.81;;;15.02;51.07
6387;BME280;3226;42.162;24.756;2022-10-22T10:27:04;100447.91;;;15.24;50.38
6387;BME280;3226;42.162;24.756;2022-10-22T10:29:41;100444.28;;;15.25;50.10
6387;BME280;3226;42.162;24.756;2022-10-22T10:32:25;100427.50;;;14.66;51.38
6387;BME280;3226;42.162;24.756;2022-10-22T10:35:03;100430.66;;;14.91;50.58
6387;BME280;3226;42.162;24.756;2022-10-22T10:37:38;100417.78;;;15.17;50.12
6387;BME280;3226;42.162;24.756;2022-10-22T10:40:22;100404.72;;;15.06;49.49
6387;BME280;3226;42.162;24.756;2022-10-22T10:42:56;100419.88;;;15.33;49.91
6387;BME280;3226;42.162;24.756;2022-10-22T10:45:30;100406.91;;;15.50;49.80
6387;BME280;3226;42.162;24.756;2022-10-22T10:48:21;100404.28;;;15.50;49.67
6387;BME280;3226;42.162;24.756;2022-10-22T10:51:04;100395.50;;;15.88;49.08
6387;BME280;3226;42.162;24.756;2022-10-22T10:53:45;100368.13;;;15.89;48.43
6387;BME280;3226;42.162;24.756;2022-10-22T10:56:34;100378.44;;;16.21;48.34
6387;BME280;3226;42.162;24.756;2022-10-22T10:59:17;100372.22;;;16.40;48.20
6387;BME280;3226;42.162;24.756;2022-10-22T11:02:07;100375.34;;;16.53;47.60
6387;BME280;3226;42.162;24.756;2022-10-22T11:05:14;100374.97;;;16.66;46.73
6387;BME280;3226;42.162;24.756;2022-10-22T11:07:54;100361.06;;;16.64;46.38
6387;BME280;3226;42.162;24.756;2022-10-22T11:10:27;100366.28;;;16.56;46.18
6387;BME280;3226;42.162;24.756;2022-10-22T11:13:03;100353.53;;;16.69;45.16
6387;BME280;3226;42.162;24.756;2022-10-22T11:15:35;100343.56;;;16.81;44.96
6387;BME280;3226;42.162;24.756;2022-10-22T11:18:11;100336.25;;;16.93;44.79
6387;BME280;3226;42.162;24.756;2022-10-22T11:20:49;100330.44;;;17.08;44.10
6387;BME280;3226;42.162;24.756;2022-10-22T11:23:25;100334.50;;;17.20;44.41
6387;BME280;3226;42.162;24.756;2022-10-22T11:25:55;100337.16;;;17.20;44.19
6387;BME280;3226;42.162;24.756;2022-10-22T11:28:27;100328.06;;;17.23;43.26
6387;BME280;3226;42.162;24.756;2022-10-22T11:31:02;100329.59;;;17.25;43.32
6387;BME280;3226;42.162;24.756;2022-10-22T11:33:40;100327.94;;;17.24;42.74
6387;BME280;3226;42.162;24.756;2022-10-22T11:36:12;100312.00;;;17.16;42.97
6387;BME280;3226;42.162;24.756;2022-10-22T11:38:41;100314.16;;;17.47;43.10
6387;BME280;3226;42.162;24.756;2022-10-22T11:41:11;100307.16;;;17.38;42.24
6387;BME280;3226;42.162;24.756;2022-10-22T11:43:57;100297.03;;;17.59;42.24
6387;BME280;3226;42.162;24.756;2022-10-22T11:46:38;100293.38;;;17.87;41.38
6387;BME280;3226;42.162;24.756;2022-10-22T11:49:17;100300.13;;;18.08;40.59
6387;BME280;3226;42.162;24.756;2022-10-22T11:51:47;100291.88;;;18.19;40.97
6387;BME280;3226;42.162;24.756;2022-10-22T11:54:30;100283.03;;;18.10;40.43
6387;BME280;3226;42.162;24.756;2022-10-22T11:57:17;100290.19;;;18.10;41.03
6387;BME280;3226;42.162;24.756;2022-10-22T11:59:50;100296.28;;;18.02;40.85
6387;BME280;3226;42.162;24.756;2022-10-22T12:02:39;100270.78;;;17.40;42.04
6387;BME280;3226;42.162;24.756;2022-10-22T12:05:42;100278.81;;;17.56;41.58
6387;BME280;3226;42.162;24.756;2022-10-22T12:08:29;100277.91;;;17.74;41.28
6387;BME280;3226;42.162;24.756;2022-10-22T12:11:12;100270.00;;;18.25;40.29
6387;BME280;3226;42.162;24.756;2022-10-22T12:14:18;100259.91;;;18.29;40.15
6387;BME280;3226;42.162;24.756;2022-10-22T12:16:52;100256.06;;;18.06;40.40
6387;BME280;3226;42.162;24.756;2022-10-22T12:19:27;100267.22;;;18.27;40.59
6387;BME280;3226;42.162;24.756;2022-10-22T12:21:58;100267.34;;;18.17;40.44
6387;BME280;3226;42.162;24.756;2022-10-22T12:24:33;100249.53;;;17.92;40.55
6387;BME280;3226;42.162;24.756;2022-10-22T12:27:02;100240.31;;;18.13;40.52
6387;BME280;3226;42.162;24.756;2022-10-22T12:29:31;100256.41;;;18.20;40.25
6387;BME280;3226;42.162;24.756;2022-10-22T12:32:03;100250.00;;;17.88;40.46
6387;BME280;3226;42.162;24.756;2022-10-22T12:34:32;100246.34;;;17.89;40.92
6387;BME280;3226;42.162;24.756;2022-10-22T12:37:03;100243.78;;;17.71;41.04
6387;BME280;3226;42.162;24.756;2022-10-22T12:39:34;100245.81;;;17.77;41.48
6387;BME280;3226;42.162;24.756;2022-10-22T12:42:03;100239.25;;;17.98;41.01
6387;BME280;3226;42.162;24.756;2022-10-22T12:44:32;100221.94;;;18.03;40.66
6387;BME280;3226;42.162;24.756;2022-10-22T12:47:00;100229.91;;;18.37;40.17
6387;BME280;3226;42.162;24.756;2022-10-22T12:49:34;100218.47;;;18.19;40.37
6387;BME280;3226;42.162;24.756;2022-10-22T12:52:05;100228.91;;;18.13;40.40
6387;BME280;3226;42.162;24.756;2022-10-22T12:54:40;100227.78;;;18.40;40.29
6387;BME280;3226;42.162;24.756;2022-10-22T12:57:12;100221.47;;;18.49;39.65
6387;BME280;3226;42.162;24.756;2022-10-22T12:59:45;100224.59;;;18.20;40.29
6387;BME280;3226;42.162;24.756;2022-10-22T13:02:18;100223.59;;;18.13;39.59
6387;BME280;3226;42.162;24.756;2022-10-22T13:05:15;100172.41;;;18.12;40.46
6387;BME280;3226;42.162;24.756;2022-10-22T13:07:49;100224.06;;;18.08;40.31
6387;BME280;3226;42.162;24.756;2022-10-22T13:10:23;100217.47;;;18.20;39.80
6387;BME280;3226;42.162;24.756;2022-10-22T13:12:55;100211.81;;;18.15;39.94
6387;BME280;3226;42.162;24.756;2022-10-22T13:15:36;100218.69;;;18.43;39.96
6387;BME280;3226;42.162;24.756;2022-10-22T13:18:16;100210.16;;;18.14;39.87
6387;BME280;3226;42.162;24.756;2022-10-22T13:20:52;100187.34;;;18.22;40.13
6387;BME280;3226;42.162;24.756;2022-10-22T13:23:23;100219.34;;;18.53;39.95
6387;BME280;3226;42.162;24.756;2022-10-22T13:25:58;100206.75;;;18.63;39.18
6387;BME280;3226;42.162;24.756;2022-10-22T13:28:28;100204.91;;;18.72;38.87
6387;BME280;3226;42.162;24.756;2022-10-22T13:30:59;100215.19;;;18.75;39.63
6387;BME280;3226;42.162;24.756;2022-10-22T13:33:29;100208.72;;;18.86;39.62
6387;BME280;3226;42.162;24.756;2022-10-22T13:35:59;100206.72;;;18.72;39.55